Prestations.

Choisissez la prestation de votre choix.

Initiation.

Évènement client.

Formations.

METAR :

LFQA 070530Z AUTO 25002KT 1500 BR NSC 07/06 Q1028


vue en direct sur l'aérodrome
mentions légales politique de confidentialité
Cochet Concept
cx